NAVY

2021/11/10

東京水辺ライン 東京港 2021/11/7 sun <ドイツ海軍フリゲート バイエルン>

横浜港の九都県市合同防災訓練会場を早々に離れ、せっかく上京したので、しおらしく観光へGo!

RJTT 070300Z 02012KT 9999 FEW035 BKN/// 18/11 Q1022 NOSIG RMK 1CU035 A3020

20211107_0trip_00yokohama

横浜駅から湘南東京ラインで北上

20211107_0trip_01shinkiba

大崎で乗り換えて、新木場到着

20211107_0trip_02shinkiba

赤い京葉線が行き来します。

20211107_0trip_03shinkiba

武蔵野線もお古ですが、新型に変わっていました。

RJTT 070400Z 01010KT 9999 FEW025 BKN/// 18/11 Q1022 NOSIG RMK 1CU025 A3019

20211107_0trip_04kasai

一駅乗って、葛西臨海公園

20211107_1seabus_06desny

お隣のねずみの国のお城が見えます。

20211107_1seabus_07seabus

ここから東京水辺ラインに乗って、バブルの申し子「お台場」までミニトリップ

20211107_1seabus_08seabus

この路線は、はるかかなた昔に一度乗船したことがあります。同業らしき人は、20人ぐらい。

20211107_1seabus_09brige

その当時と変わったのは、東京ゲートブリッジの景色かな

20211107_1seabus_10koutouhp

東京ヘリポートの脇を通って

20211107_1seabus_11wakasub

若洲橋をくぐり

RJTT 070500Z 02009KT 9999 FEW025 SCT050 BKN070 19/12 Q1022 NOSIG RMK 1CU025 3SC050 6AC070 A3019

20211107_1seabus_12ja814a

ANA215 RJTT-LFPG JA814A B787-8

羽田からの離陸機を眺めます。

20211107_1seabus_13taiheiyosemento

日本の大手セメントメーカー 太平洋セメント

20211107_1seabus_14suou

東京ゲートブリッジをくぐって、RO-RO船がやって来ます。

20211107_1seabus_15skytree

天を衝くスカイツリー

20211107_1seabus_16suou

船の世界は、左側優先

20211107_1seabus_17suou

水上バスは、減速して、先に行ってもらいます。

20211107_1seabus_18suou

すおう JD4569 今治 自動車運搬船 

20211107_1seabus_19ja14an

ADO25 RJTT-RJCC JA14AN B737-781

20211107_1seabus_20ja615j

JAL321 RJTT-RJFF JA615J B767-346ER

20211107_1seabus_21tokyot

ビルの狭間に東京タワーが見れます。

20211107_1seabus_22ja840a

ANA67 RJTT-RJCC JA840A B787-8

20211107_1seabus_23himawari9

ひまわり9 JD4230 東京 

20211107_1seabus_24hanedat

羽田のタワー

20211107_1seabus_25apollond

コンテナ埠頭に廻ってきました。

APOLLON D A8QD6 MONROVIA(LR)

20211107_1seabus_26dd106

東京国際クルーズターミナルが見えます。ここは、小生は初めて

20211107_1seabus_27ja63an

ANA405 RJTT-RJSK JA63AN B737-881

20211107_1seabus_28afuku

A FUKU 3EFV5 (PA)

20211107_1seabus_29dd106

お目当ての自衛艦は、「さみだれ」

20211107_1seabus_30dd106

「さみだれ」の前は、ドイツ海軍フリゲート「バイエルン」

20211107_1seabus_31f217

ブランデンブルク級フリゲート3番艦 

20211107_1seabus_32dd106

11月5日 ホストシップの「さみだれ」と一緒に入港した。

20211107_1seabus_33dd106

DD106「さみだれ」 第4護衛隊群第4護衛隊(呉)

20211107_1seabus_34f217

F217 Bayern 第2機動隊群第2フリゲート戦隊(ヴィルヘルムスハーフェン )

20211107_1seabus_35dd106

さみだれ

20211107_1seabus_36f217

20211107_1seabus_37f217

後部甲板に哨戒ヘリコプター「シーリンクス」2機

20211107_1seabus_38f217

バイエルン

20211107_1seabus_39dd106

20211107_1seabus_40f217

20211107_1seabus_41f217

20211107_1seabus_42f217

20211107_1seabus_43f217

20211107_1seabus_44f217

20211107_1seabus_45f217

20211107_1seabus_46f217

20211107_1seabus_47hl02

海保大型測量船桟橋に所在 かなりの歴戦です。

20211107_1seabus_48hl02

HL02「拓洋」

20211107_1seabus_49kaihoumaru

海鷹丸 JPAT 東京

20211107_1seabus_50shinwamaru

神加丸 JD3630 東京

20211107_1seabus_51rainbowb

レインボーブリッジに向かいます

20211107_1seabus_52rainbowb

20211107_1seabus_53rainbowb

レインボーブリッジをくぐって右遷

20211107_1seabus_54tokyot

20211107_1seabus_55daiba6

第六台場を過ぎて

20211107_1seabus_56rainbowb

フジテレビ前の水上バス桟橋に到着です。

20211107_1seabus_57kosumosu

本日乗船したのは、「こすもす」

20211107_1seabus_58cx

すっかりお上りさん気分で上陸

20211107_2odaiba_59kosumosu

20211107_2odaiba_60kosumosu

「こすもす」は、ここから両国を目指します。

RJTT 070600Z 05013KT 9999 FEW030 SCT060 BKN080 19/13 Q1022 NOSIG RMK 2CU030 4SC060 6AC080 A3019

20211107_2odaiba_61megami

お台場と言えば、これでしょ。

20211107_2odaiba_62ja602a

ADO59 RJTT-RJCH JA602A B767-381

20211107_2odaiba_63tict

徒歩で東京国際クルーズターミナルへ

20211107_2odaiba_64pl107

船の科学館の横ですね。exPL107「宗谷」

20211107_2odaiba_65cl183

CL183「ゆりかぜ」 他にも船艇がいますが、見える分だけ

20211107_2odaiba_66tict

では、ターミナルへ

20211107_2odaiba_67f217

手に取る位置で、眺められます。

20211107_2odaiba_68f217

Fregatte Bayern

20211107_2odaiba_69dd106

さみだれ

20211107_2odaiba_70f217

ターミナル2Fから見てみます。

20211107_2odaiba_71f217

搭載ボート

20211107_2odaiba_72f217

対艦ミサイルは、エグゾセMM38

20211107_2odaiba_73pc01

PC01「まつなみ」

20211107_2odaiba_75f217

ターミナル4Fまで上がりました。

20211107_2odaiba_74f217

アグスタウエストランド スーパーリンクス Mk.88A

20211107_2odaiba_76f217

奥の83+17

20211107_2odaiba_84f217

手前の83+26

20211107_2odaiba_77f217

20211107_2odaiba_78f217

20211107_2odaiba_79dd106

20211107_2odaiba_80daiql

おっとルフトハンザ 残念ながらマストは、さみだれ

20211107_2odaiba_81daiql

DLH717 RJTT-EDDF D-AIGL A340-313

20211107_2odaiba_82f217

20211107_2odaiba_83ja849j

JAL323 RJTT-RJFF JA849A B787-8

20211107_2odaiba_85f217

のどかなベンチ

20211107_2odaiba_86f217

Mk.49 RAM 近SAM 21連装発射機

20211107_2odaiba_87ja

ANA681 RJTT-RJOA JA111A A321-211

20211107_2odaiba_88ja811a

ANA259 RJTT-RJFF JA811A B787-8

20211107_2odaiba_89f217

20211107_2odaiba_90f217

屋形船も攻めてきます。

20211107_2odaiba_91f217

おやおや、黒塗りがいっぱい。みんな外ナンバー。
駐日ドイツ大使が友好国関係者を招待した、なにかがあった様。小生が確認できたのは、EUとトルコ。

20211107_2odaiba_92f217

###

 

20211107_2odaiba_93f217

日独友好ですが、現実は対中、対北で厳しい現実があります。

20211107_2odaiba_94gundam

新しいお台場のシンボル

なんか、一日で大ボリュームの大作になってしまった。

船と飛行機と旅と入り乱れてのレポートですまぬ。

 

 

| | コメント (0)

その他のカテゴリー

BI Boading record aircraft Boading record ship FlightTracking lighthouse NAVAIDS NAVY RJNT LOG SKY MASSAGE US NAVY USMC うみ おか そら てつ アクシデント エアロック チーム室屋 ヘリポート 三沢飛行場 上五島空港 下地島空港 下総飛行場 与論空港 与那国空港 中標津空港 中部国際空港 久米島空港 五島福江空港 仙台空港 伊江島空港 但馬空港 佐賀空港 入間飛行場 八尾空港 八戸飛行場 出雲空港 函館空港 利尻空港 北九州空港 北大東空港 十勝飛行場 千歳飛行場 南大東空港 博物館 厚木飛行場 名古屋飛行場 喜界空港 嘉手納飛行場 場外 壱岐空港 多良間空港 大分空港 大村飛行場 大湊飛行場 大阪国際空港 大館能代空港 天草空港 奄美空港 奥尻空港 宇部山口空港 宇都宮飛行場 宮古空港 宮崎空港 富山空港 対馬空港 小松島飛行場 小松飛行場 屋久島空港 山形空港 岐阜飛行場 岡南飛行場 岡山空港 岩国飛行場 帯広空港 広島空港 広島西飛行場 庄内空港 徳之島空港 徳島飛行場 慶良間空港 成田国際空港 新島空港 新潟空港 新田原飛行場 旭川空港 旭川飛行場 明野飛行場 普天間飛行場 木更津飛行場 札幌飛行場 東京国際空港 松山空港 松島飛行場 松本空港 枕崎飛行場 横田飛行場 沖永良部空港 波照間空港 浜松飛行場 海上保安庁 海上自衛隊 海外 熊本空港 百里飛行場 相馬原飛行場 石垣空港 石見空港 礼文空港 神戸空港 神津島空港 福井空港 福岡空港 福島空港 秋田空港 稚内空港 種子島空港 空撮 立川飛行場 竜ヶ崎飛行場 築城飛行場 粟国空港 美保飛行場 能登空港 舞鶴飛行場 航空自衛隊 芦屋飛行場 花巻空港 調布飛行場 警務消防 那覇空港 釧路空港 長崎空港 関西国際空港 陸上自衛隊 隠岐空港 霞ヶ浦飛行場 霞目飛行場 青森空港 静岡空港 静浜飛行場 飛行場跡 飛行船 鹿児島空港 鹿屋飛行場